Time;durP1;ratioP1;P1;durP2;ratioP2;P2;SDS_P1;SDS_P2;PMS_P1;PMS_P2;Temp;Humidity;BMP_temperature;BMP_pressure;BME280_temperature;BME280_humidity;BME280_pressure;Samples;Min_cycle;Max_cycle;Signal;HPM_P1;HPM_P2
2023/11/28 00:01:31;;;;;;;48.27;21.77;;;0.00;99.90;;;;;;4957255;29;20686;-84
2023/11/28 00:03:59;;;;;;;50.40;22.30;;;0.00;99.90;;;;;;4957125;29;20276;-84
2023/11/28 00:06:26;;;;;;;44.33;21.40;;;-0.10;99.90;;;;;;4955784;29;20248;-83
2023/11/28 00:08:53;;;;;;;48.17;21.63;;;-0.10;99.90;;;;;;4957029;29;20198;-83
2023/11/28 00:11:23;;;;;;;48.37;22.47;;;0.00;99.90;;;;;;4956913;29;20265;-82
2023/11/28 00:13:51;;;;;;;45.50;22.03;;;-0.10;99.90;;;;;;4957079;29;20241;-82
2023/11/28 00:16:18;;;;;;;46.70;22.07;;;-0.10;99.90;;;;;;4956838;29;20199;-82
2023/11/28 00:18:46;;;;;;;45.17;21.20;;;-0.10;99.90;;;;;;4924101;29;20249;-82
2023/11/28 00:21:14;;;;;;;49.33;22.17;;;-0.10;99.90;;;;;;4957177;29;20191;-83
2023/11/28 00:23:42;;;;;;;49.77;20.93;;;-0.10;99.90;;;;;;4956882;29;20220;-81
2023/11/28 00:26:10;;;;;;;43.93;20.77;;;-0.10;99.90;;;;;;4957006;29;20399;-83
2023/11/28 00:28:37;;;;;;;45.93;20.97;;;-0.10;99.90;;;;;;4956694;29;20666;-83
2023/11/28 00:31:05;;;;;;;45.93;21.60;;;-0.10;99.90;;;;;;4955551;29;20226;-82
2023/11/28 00:33:33;;;;;;;44.63;21.20;;;-0.10;99.90;;;;;;4956442;28;20210;-83
2023/11/28 00:36:00;;;;;;;48.30;22.07;;;0.00;99.90;;;;;;4939449;29;20650;-83
2023/11/28 00:38:28;;;;;;;52.73;22.97;;;-0.10;99.90;;;;;;4955294;29;20237;-83
2023/11/28 00:40:56;;;;;;;48.43;21.37;;;-0.10;99.90;;;;;;4956325;29;20565;-84
2023/11/28 00:43:23;;;;;;;52.07;22.27;;;0.00;99.90;;;;;;4939445;29;20224;-83
2023/11/28 00:45:50;;;;;;;43.97;21.10;;;0.00;99.90;;;;;;4956649;29;20241;-83
2023/11/28 00:48:19;;;;;;;46.43;21.90;;;-0.10;99.90;;;;;;4956515;29;20276;-83
2023/11/28 00:50:46;;;;;;;48.03;22.30;;;0.00;99.90;;;;;;4956356;29;20202;-83
2023/11/28 00:53:14;;;;;;;45.30;22.23;;;0.00;99.90;;;;;;4956766;29;20300;-83
2023/11/28 00:55:41;;;;;;;47.17;22.00;;;-0.10;99.90;;;;;;4935815;29;20286;-83
2023/11/28 00:58:09;;;;;;;45.90;21.17;;;0.00;99.90;;;;;;4935408;29;20242;-83
2023/11/28 01:00:36;;;;;;;47.93;21.67;;;0.00;99.90;;;;;;4935666;29;20298;-83
2023/11/28 01:03:04;;;;;;;49.23;22.03;;;-0.10;99.90;;;;;;4936003;29;20216;-83
2023/11/28 01:05:31;;;;;;;47.17;22.27;;;-0.10;99.90;;;;;;4937311;29;20195;-83
2023/11/28 01:07:59;;;;;;;50.80;22.73;;;-0.10;99.90;;;;;;4936240;29;20197;-84
2023/11/28 01:10:26;;;;;;;50.37;21.90;;;-0.10;99.90;;;;;;4936864;29;20218;-83
2023/11/28 01:12:53;;;;;;;49.67;22.40;;;0.00;99.90;;;;;;4936995;29;20205;-84
2023/11/28 01:15:21;;;;;;;49.57;21.77;;;0.00;99.90;;;;;;4941721;29;20202;-83
2023/11/28 01:17:48;;;;;;;50.43;22.00;;;0.00;99.90;;;;;;4936935;29;20287;-82
2023/11/28 01:20:15;;;;;;;48.83;22.40;;;0.00;99.90;;;;;;4936763;29;20191;-84
2023/11/28 01:22:43;;;;;;;51.20;23.17;;;0.00;99.90;;;;;;4951283;29;20253;-83
2023/11/28 01:25:11;;;;;;;45.53;22.50;;;0.00;99.90;;;;;;4936710;29;20262;-82
2023/11/28 01:27:38;;;;;;;50.37;23.00;;;0.00;99.90;;;;;;4934852;29;20238;-83
2023/11/28 01:30:06;;;;;;;51.43;22.83;;;0.00;99.90;;;;;;4936546;29;20201;-83
2023/11/28 01:32:33;;;;;;;49.27;22.07;;;0.00;99.90;;;;;;4919755;29;20273;-82
2023/11/28 01:35:00;;;;;;;46.67;21.53;;;-0.10;99.90;;;;;;4934998;29;20592;-83
2023/11/28 01:37:28;;;;;;;50.30;23.47;;;-0.10;99.90;;;;;;4936443;29;20214;-82
2023/11/28 01:39:55;;;;;;;52.70;23.20;;;-0.10;99.90;;;;;;4936396;29;20251;-82
2023/11/28 01:42:22;;;;;;;50.17;23.03;;;-0.10;99.90;;;;;;4936348;29;20273;-83
2023/11/28 01:44:49;;;;;;;51.67;22.87;;;-0.10;99.90;;;;;;4936081;29;20497;-83
2023/11/28 01:47:17;;;;;;;50.57;22.83;;;-0.10;99.90;;;;;;4950530;29;20239;-83
2023/11/28 01:49:44;;;;;;;47.60;22.07;;;-0.10;99.90;;;;;;4936408;29;20198;-83
2023/11/28 01:52:12;;;;;;;48.60;22.57;;;0.00;99.90;;;;;;4936106;29;20196;-83
2023/11/28 01:54:42;;;;;;;54.20;23.37;;;0.00;99.90;;;;;;4941273;29;20310;-83
2023/11/28 01:57:10;;;;;;;47.67;22.77;;;0.00;99.90;;;;;;4937900;29;20214;-83
2023/11/28 01:59:40;;;;;;;51.80;22.20;;;0.10;99.90;;;;;;4955505;29;20291;-84
2023/11/28 02:02:08;;;;;;;47.20;21.60;;;0.10;99.90;;;;;;4938631;29;20196;-84
2023/11/28 02:04:36;;;;;;;50.57;23.20;;;0.10;99.90;;;;;;4954010;29;20691;-82
2023/11/28 02:07:04;;;;;;;51.37;22.27;;;0.20;99.90;;;;;;4954827;29;20199;-82
2023/11/28 02:09:31;;;;;;;47.23;22.03;;;0.30;99.90;;;;;;4955079;29;20248;-81
2023/11/28 02:11:59;;;;;;;52.37;22.97;;;0.30;99.90;;;;;;4937855;29;20700;-83
2023/11/28 02:14:26;;;;;;;52.53;24.07;;;0.30;99.90;;;;;;4937770;29;20716;-83
2023/11/28 02:16:53;;;;;;;48.93;22.63;;;0.20;99.90;;;;;;4955017;29;20207;-83
2023/11/28 02:19:21;;;;;;;50.67;22.83;;;0.20;99.90;;;;;;4954749;28;20227;-83
2023/11/28 02:21:49;;;;;;;49.33;22.97;;;0.20;99.90;;;;;;4954577;29;20201;-83
2023/11/28 02:24:18;;;;;;;49.80;22.67;;;0.20;99.90;;;;;;4937462;29;20222;-83
2023/11/28 02:26:45;;;;;;;49.23;22.53;;;0.10;99.90;;;;;;4954350;29;20211;-82
2023/11/28 02:29:12;;;;;;;50.47;22.23;;;0.20;99.90;;;;;;4955028;29;20198;-83
2023/11/28 02:31:40;;;;;;;51.00;23.60;;;0.30;99.90;;;;;;4954291;29;20201;-82
2023/11/28 02:34:07;;;;;;;51.70;23.93;;;0.30;99.90;;;;;;4954755;29;20355;-83
2023/11/28 02:36:35;;;;;;;52.10;24.17;;;0.30;99.90;;;;;;4954365;29;20209;-82
2023/11/28 02:39:02;;;;;;;53.37;23.97;;;0.40;99.90;;;;;;4954620;29;20734;-82
2023/11/28 02:41:30;;;;;;;52.77;23.57;;;0.30;99.90;;;;;;4954509;29;20222;-82
2023/11/28 02:43:59;;;;;;;52.97;24.13;;;0.20;99.90;;;;;;4954267;29;20678;-81
2023/11/28 02:46:26;;;;;;;52.50;24.77;;;0.20;99.90;;;;;;4954524;29;20198;-82
2023/11/28 02:48:53;;;;;;;48.60;23.17;;;0.20;99.90;;;;;;4937500;29;20667;-83
2023/11/28 02:51:21;;;;;;;52.33;23.03;;;0.20;99.90;;;;;;4954706;29;20209;-83
2023/11/28 02:53:48;;;;;;;47.83;22.80;;;0.20;99.90;;;;;;4954404;29;20670;-83
2023/11/28 02:56:16;;;;;;;58.33;24.67;;;0.20;99.90;;;;;;4937042;29;20238;-83
2023/11/28 02:58:43;;;;;;;53.83;24.33;;;0.20;99.90;;;;;;4954338;29;20685;-83
2023/11/28 03:01:10;;;;;;;49.97;23.47;;;0.10;99.90;;;;;;4937539;29;20288;-84
2023/11/28 03:03:37;;;;;;;53.57;22.77;;;0.10;99.90;;;;;;4937590;29;20257;-82
2023/11/28 03:06:05;;;;;;;47.27;22.63;;;0.00;99.90;;;;;;4954364;29;20225;-83
2023/11/28 03:08:32;;;;;;;51.07;23.37;;;0.10;99.90;;;;;;4937639;29;20201;-84
2023/11/28 03:11:00;;;;;;;51.23;23.37;;;-0.10;99.90;;;;;;4953289;29;20253;-83
2023/11/28 03:13:27;;;;;;;52.47;22.80;;;-0.10;99.90;;;;;;4954214;29;20196;-83
2023/11/28 03:15:55;;;;;;;51.50;23.07;;;-0.10;99.90;;;;;;4954162;29;20229;-83
2023/11/28 03:18:22;;;;;;;49.20;22.87;;;-0.10;99.90;;;;;;4936891;29;20256;-82
2023/11/28 03:20:49;;;;;;;50.27;23.23;;;-0.20;99.90;;;;;;4952912;29;20203;-83
2023/11/28 03:23:17;;;;;;;53.07;23.87;;;-0.20;99.90;;;;;;4954829;29;20201;-83
2023/11/28 03:25:44;;;;;;;48.93;23.27;;;-0.20;99.90;;;;;;4953910;29;20249;-83
2023/11/28 03:28:12;;;;;;;51.80;22.67;;;-0.20;99.90;;;;;;4954291;29;20206;-83
2023/11/28 03:30:39;;;;;;;57.00;24.13;;;-0.30;99.90;;;;;;4952815;28;20205;-84
2023/11/28 03:33:06;;;;;;;51.50;24.47;;;-0.30;99.90;;;;;;4939895;29;20622;-83
2023/11/28 03:35:33;;;;;;;52.67;24.87;;;-0.40;99.90;;;;;;4958058;29;20209;-83
2023/11/28 03:38:01;;;;;;;55.53;24.37;;;-0.40;99.90;;;;;;4940793;29;20232;-83
2023/11/28 03:40:28;;;;;;;49.63;23.77;;;-0.50;99.90;;;;;;4957800;29;20221;-83
2023/11/28 03:42:55;;;;;;;53.53;24.37;;;-0.50;99.90;;;;;;4957399;29;20767;-83
2023/11/28 03:45:22;;;;;;;50.70;24.63;;;-0.50;99.90;;;;;;4957603;29;20218;-83
2023/11/28 03:47:49;;;;;;;55.23;23.90;;;-0.50;99.90;;;;;;4957609;29;20234;-83
2023/11/28 03:50:16;;;;;;;52.53;23.33;;;-0.50;99.90;;;;;;4940525;29;20205;-83
2023/11/28 03:52:44;;;;;;;53.53;24.83;;;-0.60;99.90;;;;;;4957413;29;20241;-81
2023/11/28 03:55:11;;;;;;;53.03;23.90;;;-0.60;99.90;;;;;;4957254;29;20234;-83
2023/11/28 03:57:38;;;;;;;52.67;23.70;;;-0.50;99.90;;;;;;4940106;29;20197;-83
2023/11/28 04:00:09;;;;;;;52.47;23.50;;;-0.60;99.90;;;;;;4940207;29;20206;-83
2023/11/28 04:02:37;;;;;;;52.43;24.17;;;-0.60;99.90;;;;;;4955831;29;20198;-83
2023/11/28 04:05:05;;;;;;;53.13;23.73;;;-0.60;99.90;;;;;;4957458;29;20233;-82
2023/11/28 04:07:32;;;;;;;53.87;25.40;;;-0.60;99.90;;;;;;4956943;29;20225;-82
2023/11/28 04:10:00;;;;;;;53.77;24.07;;;-0.70;99.90;;;;;;4957395;29;20579;-83
2023/11/28 04:12:27;;;;;;;54.73;24.33;;;-0.70;99.90;;;;;;4956839;28;20677;-83
2023/11/28 04:14:54;;;;;;;55.93;23.93;;;-0.70;99.90;;;;;;4939564;29;20375;-84
2023/11/28 04:17:21;;;;;;;55.07;24.23;;;-0.80;99.90;;;;;;4939887;29;20205;-84
2023/11/28 04:19:49;;;;;;;51.37;23.50;;;-0.80;99.90;;;;;;4956613;29;20205;-83
2023/11/28 04:22:16;;;;;;;55.13;24.30;;;-0.90;99.90;;;;;;4956700;29;20645;-83
2023/11/28 04:24:43;;;;;;;56.47;24.73;;;-1.00;99.90;;;;;;4956895;29;20226;-83
2023/11/28 04:27:10;;;;;;;52.00;24.20;;;-1.00;99.90;;;;;;4956426;29;20213;-82
2023/11/28 04:29:38;;;;;;;55.43;24.77;;;-1.10;99.90;;;;;;4938665;29;20231;-82
2023/11/28 04:32:06;;;;;;;56.43;23.97;;;-1.10;99.90;;;;;;4956297;29;20244;-84
2023/11/28 04:34:33;;;;;;;58.27;25.13;;;-1.20;99.90;;;;;;4956945;29;20212;-83
2023/11/28 04:37:01;;;;;;;55.00;25.13;;;-1.20;99.90;;;;;;4956546;29;20191;-83
2023/11/28 04:39:28;;;;;;;55.40;24.70;;;-1.20;99.90;;;;;;4956243;29;20194;-83
2023/11/28 04:41:56;;;;;;;54.37;24.20;;;-1.30;99.90;;;;;;4956488;29;20221;-83
2023/11/28 04:44:24;;;;;;;58.67;25.63;;;-1.40;99.90;;;;;;4955204;28;20366;-83
2023/11/28 04:46:51;;;;;;;61.57;25.63;;;-1.40;99.90;;;;;;4956104;29;20681;-82
2023/11/28 04:49:20;;;;;;;57.87;24.93;;;-1.40;99.90;;;;;;4955973;29;20226;-83
2023/11/28 04:51:47;;;;;;;57.17;25.67;;;-1.40;99.90;;;;;;4938911;29;20644;-83
2023/11/28 04:54:14;;;;;;;65.47;26.40;;;-1.50;99.90;;;;;;4955645;28;20202;-83
2023/11/28 04:56:41;;;;;;;58.97;26.47;;;-1.60;99.90;;;;;;4956379;29;20228;-83
2023/11/28 04:59:10;;;;;;;62.80;26.07;;;-1.60;99.90;;;;;;4956030;29;20206;-82
2023/11/28 05:01:47;;;;;;;58.53;26.47;;;-1.60;99.90;;;;;;4955697;28;20200;-83
2023/11/28 05:04:15;;;;;;;63.97;26.80;;;-1.70;99.90;;;;;;4954489;28;20226;-81
2023/11/28 05:06:43;;;;;;;63.73;26.67;;;-1.80;99.90;;;;;;4956030;29;20209;-82
2023/11/28 05:09:11;;;;;;;64.77;28.53;;;-1.80;99.90;;;;;;4956207;29;20197;-81
2023/11/28 05:11:38;;;;;;;63.90;28.13;;;-1.80;99.90;;;;;;4954655;29;20231;-82
2023/11/28 05:14:05;;;;;;;61.27;27.73;;;-1.70;99.90;;;;;;4955815;29;20191;-82
2023/11/28 05:16:33;;;;;;;65.27;27.57;;;-1.70;99.90;;;;;;4938856;29;20205;-83
2023/11/28 05:19:17;;;;;;;68.03;28.50;;;-1.60;99.90;;;;;;4954877;29;20199;-83
2023/11/28 05:21:44;;;;;;;66.83;29.20;;;-1.60;99.90;;;;;;4955703;29;20210;-83
2023/11/28 05:24:12;;;;;;;66.87;28.53;;;-1.50;99.90;;;;;;4938608;29;20644;-83
2023/11/28 05:26:39;;;;;;;66.27;28.77;;;-1.40;99.90;;;;;;4955144;28;20213;-82
2023/11/28 05:29:06;;;;;;;66.23;29.10;;;-1.40;99.90;;;;;;4955404;29;20245;-82
2023/11/28 05:31:33;;;;;;;69.93;27.77;;;-1.40;99.90;;;;;;4955375;29;20651;-83
2023/11/28 05:34:01;;;;;;;60.63;27.43;;;-1.30;99.90;;;;;;4955081;29;20233;-82
2023/11/28 05:36:28;;;;;;;64.83;28.73;;;-1.30;99.90;;;;;;4955591;29;20295;-82
2023/11/28 05:38:55;;;;;;;64.23;27.73;;;-1.30;99.90;;;;;;4938132;29;20203;-83
2023/11/28 05:41:23;;;;;;;65.33;26.97;;;-1.30;99.90;;;;;;4937784;29;20371;-82
2023/11/28 05:43:51;;;;;;;66.20;27.63;;;-1.30;99.90;;;;;;4955384;29;20271;-83
2023/11/28 05:46:18;;;;;;;64.33;27.80;;;-1.30;99.90;;;;;;4938067;29;20220;-82
2023/11/28 05:48:45;;;;;;;62.77;28.17;;;-1.20;99.90;;;;;;4955311;29;20282;-82
2023/11/28 05:51:13;;;;;;;59.87;26.97;;;-1.20;99.90;;;;;;4937905;29;20668;-82
2023/11/28 05:53:41;;;;;;;66.50;27.87;;;-1.20;99.90;;;;;;4958157;28;20284;-83
2023/11/28 05:56:10;;;;;;;61.47;28.27;;;-1.20;99.90;;;;;;4968396;29;20624;-82
2023/11/28 05:58:38;;;;;;;60.07;26.40;;;-1.30;99.90;;;;;;4967745;29;20232;-83
2023/11/28 06:01:05;;;;;;;60.87;26.27;;;-1.30;99.90;;;;;;4951888;29;20244;-84
2023/11/28 06:03:33;;;;;;;59.70;26.53;;;-1.20;99.90;;;;;;4951762;29;20570;-84
2023/11/28 06:06:01;;;;;;;63.13;26.53;;;-1.30;99.90;;;;;;4937538;29;20261;-83
2023/11/28 06:08:28;;;;;;;59.83;26.57;;;-1.20;99.90;;;;;;4937909;29;20194;-83
2023/11/28 06:10:55;;;;;;;62.93;27.30;;;-1.20;99.90;;;;;;4937914;29;20690;-83
2023/11/28 06:13:23;;;;;;;60.97;26.37;;;-1.20;99.90;;;;;;4953753;29;20198;-85
2023/11/28 06:15:50;;;;;;;60.77;26.97;;;-1.20;99.90;;;;;;4954679;29;20221;-83
2023/11/28 06:18:17;;;;;;;64.40;27.20;;;-1.10;99.90;;;;;;4954961;29;20203;-84
2023/11/28 06:20:45;;;;;;;62.80;26.53;;;-1.10;99.90;;;;;;4954899;29;20205;-83
2023/11/28 06:23:13;;;;;;;62.00;26.63;;;-1.00;99.90;;;;;;4922432;29;20616;-84
2023/11/28 06:25:42;;;;;;;62.73;26.93;;;-1.10;99.90;;;;;;4922055;29;20241;-84
2023/11/28 06:28:09;;;;;;;57.50;25.40;;;-1.10;99.90;;;;;;4953746;29;20626;-84
2023/11/28 06:30:37;;;;;;;57.80;26.83;;;-1.10;99.90;;;;;;4937744;29;20277;-84
2023/11/28 06:33:04;;;;;;;62.37;27.20;;;-1.10;99.90;;;;;;4954632;29;20635;-83
2023/11/28 06:35:34;;;;;;;58.80;25.87;;;-1.10;99.90;;;;;;4937410;29;20672;-84
2023/11/28 06:38:02;;;;;;;64.10;28.23;;;-1.20;99.90;;;;;;4954762;29;20282;-84
2023/11/28 06:40:29;;;;;;;63.53;27.60;;;-1.10;99.90;;;;;;4953631;29;20223;-83
2023/11/28 06:42:58;;;;;;;59.93;26.67;;;-1.10;99.90;;;;;;4937731;29;20247;-83
2023/11/28 06:45:26;;;;;;;64.47;26.97;;;-1.00;99.90;;;;;;4954629;29;20576;-83
2023/11/28 06:47:53;;;;;;;58.57;26.07;;;-1.10;99.90;;;;;;4954374;29;20660;-83
2023/11/28 06:50:20;;;;;;;60.87;26.03;;;-1.10;99.90;;;;;;4953572;29;20295;-82
2023/11/28 06:52:48;;;;;;;62.50;26.97;;;-1.10;99.90;;;;;;4954610;29;20538;-83
2023/11/28 06:55:16;;;;;;;63.33;26.27;;;-1.10;99.90;;;;;;4937033;29;20321;-83
2023/11/28 06:57:47;;;;;;;65.00;27.70;;;-1.10;99.90;;;;;;4938033;29;20278;-84
2023/11/28 07:00:15;;;;;;;63.67;27.13;;;-1.10;99.90;;;;;;4954915;29;20284;-83
2023/11/28 07:02:43;;;;;;;58.43;25.47;;;-1.10;99.90;;;;;;4937790;29;20207;-84
2023/11/28 07:05:11;;;;;;;64.73;25.83;;;-1.00;99.90;;;;;;4937278;29;20224;-83
2023/11/28 07:07:41;;;;;;;59.27;25.90;;;-1.00;99.90;;;;;;4940067;29;20220;-84
2023/11/28 07:10:08;;;;;;;59.73;25.53;;;-1.00;99.90;;;;;;4958269;29;20205;-83
2023/11/28 07:12:36;;;;;;;62.23;25.87;;;-1.00;99.90;;;;;;4940751;29;20293;-84
2023/11/28 07:15:05;;;;;;;56.23;24.47;;;-1.00;99.90;;;;;;4958163;29;20716;-84
2023/11/28 07:17:33;;;;;;;58.57;23.80;;;-1.00;99.90;;;;;;4925159;29;20566;-83
2023/11/28 07:20:01;;;;;;;57.50;25.27;;;-1.00;99.90;;;;;;4959397;29;20203;-83
2023/11/28 07:22:28;;;;;;;56.57;24.03;;;-1.10;99.90;;;;;;4940920;29;20705;-83
2023/11/28 07:24:55;;;;;;;55.50;23.47;;;-1.10;99.90;;;;;;4956472;29;20802;-83
2023/11/28 07:27:27;;;;;;;55.63;23.77;;;-1.10;99.90;;;;;;4941492;29;20215;-84
2023/11/28 07:29:55;;;;;;;58.83;23.03;;;-1.10;99.90;;;;;;4957808;29;20209;-83
2023/11/28 07:32:23;;;;;;;53.13;23.83;;;-1.10;99.90;;;;;;4957633;29;20194;-83
2023/11/28 07:34:51;;;;;;;61.03;24.33;;;-1.10;99.90;;;;;;4940527;29;20203;-83
2023/11/28 07:37:19;;;;;;;54.20;24.17;;;-1.10;99.90;;;;;;4957898;29;20630;-83
2023/11/28 07:39:46;;;;;;;58.17;24.63;;;-1.00;99.90;;;;;;4940269;29;20192;-83
2023/11/28 07:42:16;;;;;;;58.83;25.10;;;-1.00;99.90;;;;;;4940619;29;20303;-83
2023/11/28 07:44:43;;;;;;;60.87;25.37;;;-0.90;99.90;;;;;;4957670;29;20285;-82
2023/11/28 07:47:10;;;;;;;58.63;24.97;;;-0.90;99.90;;;;;;4940498;29;20194;-83
2023/11/28 07:49:42;;;;;;;60.70;25.37;;;-0.90;99.90;;;;;;4957336;29;20191;-83
2023/11/28 07:52:11;;;;;;;58.97;24.57;;;-0.90;99.90;;;;;;4957468;29;20208;-83
2023/11/28 07:54:38;;;;;;;57.97;25.70;;;-0.80;99.90;;;;;;4955804;29;20234;-83
2023/11/28 07:57:05;;;;;;;52.03;23.73;;;-0.90;99.90;;;;;;4939846;29;20212;-83
2023/11/28 07:59:32;;;;;;;64.47;25.73;;;-0.90;99.90;;;;;;4957285;29;20199;-83
2023/11/28 08:02:00;;;;;;;62.80;25.97;;;-0.90;99.90;;;;;;4939939;29;20235;-83
2023/11/28 08:04:27;;;;;;;62.80;25.33;;;-0.80;99.90;;;;;;4957069;29;20720;-83
2023/11/28 08:06:55;;;;;;;62.23;25.17;;;-0.90;99.90;;;;;;4956705;29;20230;-81
2023/11/28 08:09:23;;;;;;;60.07;25.47;;;-0.90;99.90;;;;;;4956945;29;20196;-83
2023/11/28 08:11:50;;;;;;;59.83;24.83;;;-0.90;99.90;;;;;;4940240;29;20233;-83
2023/11/28 08:14:18;;;;;;;61.93;25.87;;;-0.90;99.90;;;;;;4923780;29;20198;-83
2023/11/28 08:16:48;;;;;;;59.50;25.03;;;-0.80;99.90;;;;;;4939982;29;20190;-84
2023/11/28 08:19:16;;;;;;;57.77;25.00;;;-0.90;99.90;;;;;;4955352;29;20190;-84
2023/11/28 08:21:43;;;;;;;62.87;25.93;;;-0.90;99.90;;;;;;4956401;29;20729;-83
2023/11/28 08:24:10;;;;;;;59.60;25.13;;;-0.80;99.90;;;;;;4956659;29;20643;-83
2023/11/28 08:26:38;;;;;;;56.57;25.17;;;-0.80;99.90;;;;;;4956585;29;20253;-83
2023/11/28 08:29:05;;;;;;;59.30;24.93;;;-0.80;99.90;;;;;;4956327;29;20206;-84
2023/11/28 08:31:32;;;;;;;57.07;23.80;;;-0.70;99.90;;;;;;4955116;29;20647;-83
2023/11/28 08:33:59;;;;;;;59.03;25.93;;;-0.80;99.90;;;;;;4957168;29;20208;-84
2023/11/28 08:36:29;;;;;;;56.43;24.50;;;-0.80;99.90;;;;;;4957057;29;20245;-84
2023/11/28 08:38:57;;;;;;;61.43;25.23;;;-0.70;99.90;;;;;;4939212;29;20237;-84
2023/11/28 08:41:24;;;;;;;59.63;24.93;;;-0.70;99.90;;;;;;4956346;29;20219;-83
2023/11/28 08:43:51;;;;;;;53.67;24.57;;;-0.70;99.90;;;;;;4938752;29;20212;-83
2023/11/28 08:46:20;;;;;;;55.07;24.20;;;-0.70;99.90;;;;;;4957448;29;20272;-84
2023/11/28 08:48:50;;;;;;;56.67;23.67;;;-0.70;99.90;;;;;;4940021;29;20211;-84
2023/11/28 08:51:17;;;;;;;56.20;24.23;;;-0.80;99.90;;;;;;4956565;29;20235;-83
2023/11/28 08:53:45;;;;;;;58.63;23.77;;;-0.80;99.90;;;;;;4939526;29;20197;-83
2023/11/28 08:56:13;;;;;;;57.33;24.50;;;-0.70;99.90;;;;;;4956655;29;20257;-84
2023/11/28 08:58:40;;;;;;;54.93;23.67;;;-0.90;99.90;;;;;;4939718;29;20218;-84
2023/11/28 09:01:08;;;;;;;56.40;23.67;;;-0.80;99.90;;;;;;4939159;29;20204;-83
2023/11/28 09:03:35;;;;;;;56.10;24.20;;;-0.60;99.90;;;;;;4956742;29;20250;-83
2023/11/28 09:06:03;;;;;;;65.00;24.13;;;-0.60;99.90;;;;;;4956869;29;20257;-84
2023/11/28 09:08:30;;;;;;;56.53;23.63;;;-0.60;99.90;;;;;;4938982;29;20202;-84
2023/11/28 09:10:57;;;;;;;52.77;22.77;;;-0.60;99.90;;;;;;4938752;29;20217;-83
2023/11/28 09:13:25;;;;;;;56.70;22.73;;;-0.40;99.90;;;;;;4938858;29;20226;-83
2023/11/28 09:15:54;;;;;;;57.93;23.47;;;-0.40;99.90;;;;;;4938573;29;20212;-84
2023/11/28 09:18:21;;;;;;;55.90;23.50;;;-0.40;99.90;;;;;;4938590;29;20194;-83
2023/11/28 09:20:48;;;;;;;56.17;22.57;;;-0.50;99.90;;;;;;4938274;29;20209;-83
2023/11/28 09:23:16;;;;;;;57.70;23.50;;;-0.40;99.90;;;;;;4939515;29;20611;-84
2023/11/28 09:25:43;;;;;;;51.77;24.27;;;-0.30;99.90;;;;;;4956403;29;20222;-84
2023/11/28 09:28:23;;;;;;;56.00;23.00;;;-0.30;99.90;;;;;;4956054;29;20209;-84
2023/11/28 09:30:50;;;;;;;54.23;22.33;;;-0.30;99.90;;;;;;4938952;29;20205;-83
2023/11/28 09:33:18;;;;;;;57.03;22.67;;;-0.30;99.90;;;;;;4955813;29;20199;-83
2023/11/28 09:35:45;;;;;;;53.73;22.10;;;-0.20;99.90;;;;;;4955439;29;20249;-82
2023/11/28 09:38:13;;;;;;;47.83;21.37;;;-0.10;99.90;;;;;;4955631;29;20225;-84
2023/11/28 09:40:40;;;;;;;52.37;21.77;;;-0.20;99.90;;;;;;4955400;29;20206;-84
2023/11/28 09:43:09;;;;;;;49.83;21.23;;;-0.10;99.90;;;;;;4955335;29;20686;-83
2023/11/28 09:45:41;;;;;;;53.70;21.33;;;0.00;99.90;;;;;;4954219;29;20228;-83
2023/11/28 09:48:10;;;;;;;53.27;21.67;;;0.00;99.90;;;;;;4938301;29;20332;-83
2023/11/28 09:50:44;;;;;;;47.20;20.63;;;0.10;99.90;;;;;;4939039;29;20672;-83
2023/11/28 09:53:12;;;;;;;49.97;21.33;;;0.10;99.90;;;;;;4922550;29;20206;-84
2023/11/28 09:55:41;;;;;;;54.90;21.53;;;0.10;99.90;;;;;;4955005;29;20236;-83
2023/11/28 09:58:11;;;;;;;46.37;20.60;;;0.20;99.90;;;;;;4922201;29;20212;-82
2023/11/28 10:00:38;;;;;;;53.30;20.97;;;0.10;99.90;;;;;;4955291;29;20385;-83
2023/11/28 10:03:06;;;;;;;49.53;21.00;;;0.20;99.90;;;;;;4955019;29;20194;-83
2023/11/28 10:05:33;;;;;;;50.20;21.47;;;0.20;99.90;;;;;;4955150;29;20216;-83
2023/11/28 10:08:01;;;;;;;51.47;21.83;;;0.30;99.90;;;;;;4954930;29;20203;-82
2023/11/28 10:10:31;;;;;;;47.40;21.63;;;0.30;99.90;;;;;;4953922;29;20213;-83
2023/11/28 10:12:58;;;;;;;46.33;21.37;;;0.30;99.90;;;;;;4938391;29;20453;-83
2023/11/28 10:15:26;;;;;;;49.67;20.90;;;0.40;99.90;;;;;;4937868;29;20191;-83
2023/11/28 10:17:55;;;;;;;45.77;20.23;;;0.40;99.90;;;;;;4941158;29;20204;-84
2023/11/28 10:20:27;;;;;;;47.00;20.47;;;0.40;99.90;;;;;;4955859;29;20193;-83
2023/11/28 10:22:54;;;;;;;45.30;20.57;;;0.50;99.90;;;;;;4955793;29;20193;-83
2023/11/28 10:25:25;;;;;;;46.43;21.13;;;0.40;99.90;;;;;;4956922;29;20228;-84
2023/11/28 10:27:58;;;;;;;48.83;20.50;;;0.40;99.90;;;;;;4958179;29;20195;-84
2023/11/28 10:30:27;;;;;;;45.50;19.97;;;0.50;99.90;;;;;;4938091;29;20288;-85
2023/11/28 10:32:59;;;;;;;45.17;20.17;;;0.50;99.90;;;;;;4938187;29;20203;-83
2023/11/28 10:35:44;;;;;;;42.17;19.37;;;0.40;99.90;;;;;;4953443;29;20583;-84
2023/11/28 10:38:15;;;;;;;47.13;19.43;;;0.40;99.90;;;;;;4937526;29;20204;-83
2023/11/28 10:40:47;;;;;;;42.27;18.40;;;0.40;99.90;;;;;;4936611;29;20690;-83
2023/11/28 10:43:15;;;;;;;43.43;18.53;;;0.50;99.90;;;;;;4954663;29;20207;-83
2023/11/28 10:45:46;;;;;;;39.63;18.43;;;0.60;99.90;;;;;;4954373;29;20251;-83
2023/11/28 10:48:13;;;;;;;48.20;19.90;;;0.60;99.90;;;;;;4956947;29;20220;-83
2023/11/28 10:50:42;;;;;;;45.07;19.83;;;0.40;99.90;;;;;;4954754;29;20195;-83
2023/11/28 10:53:13;;;;;;;44.50;19.70;;;0.50;99.90;;;;;;4937655;29;20201;-83
2023/11/28 10:55:47;;;;;;;43.80;19.50;;;0.60;99.90;;;;;;4954629;29;20263;-89
2023/11/28 10:58:15;;;;;;;41.07;18.53;;;0.60;99.90;;;;;;4940446;29;20198;-90
2023/11/28 11:00:45;;;;;;;43.17;18.63;;;0.60;99.90;;;;;;4956726;29;20231;-88
2023/11/28 11:03:16;;;;;;;43.10;19.27;;;0.60;99.90;;;;;;4957385;29;20664;-90
2023/11/28 11:05:45;;;;;;;42.13;19.07;;;0.70;99.90;;;;;;4939511;29;20417;-88
2023/11/28 11:08:13;;;;;;;43.93;19.67;;;0.70;99.90;;;;;;4955884;29;20239;-88
2023/11/28 11:10:42;;;;;;;43.80;19.40;;;0.80;99.90;;;;;;4923716;29;20231;-88
2023/11/28 11:13:37;;;;;;;44.93;19.90;;;0.70;99.90;;;;;;4940184;29;20298;-90
2023/11/28 11:16:30;;;;;;;47.23;19.27;;;0.70;99.90;;;;;;4955412;29;20201;-85
2023/11/28 11:19:00;;;;;;;43.93;18.60;;;0.60;99.90;;;;;;4954742;29;20291;-81
2023/11/28 11:21:37;;;;;;;44.47;19.80;;;0.60;99.90;;;;;;4937159;29;20394;-85
2023/11/28 11:24:04;;;;;;;42.50;18.80;;;0.80;99.90;;;;;;4937485;29;20204;-84
2023/11/28 11:26:41;;;;;;;43.00;19.73;;;0.90;99.90;;;;;;4954716;29;20218;-83
2023/11/28 11:29:34;;;;;;;42.83;19.10;;;0.90;99.90;;;;;;4955073;29;20194;-84
2023/11/28 11:32:01;;;;;;;42.50;18.70;;;0.90;99.90;;;;;;4937654;29;20198;-83
2023/11/28 11:34:43;;;;;;;43.73;18.73;;;1.00;99.90;;;;;;4954465;29;20249;-83
2023/11/28 11:37:21;;;;;;;38.13;18.47;;;1.00;99.90;;;;;;4954663;29;20285;-83
2023/11/28 11:39:50;;;;;;;41.87;18.60;;;1.10;99.90;;;;;;4952754;29;20208;-82
2023/11/28 11:42:19;;;;;;;40.03;18.23;;;1.10;99.90;;;;;;4937671;29;20307;-82
2023/11/28 11:44:49;;;;;;;39.87;19.03;;;1.10;99.90;;;;;;4954098;29;20200;-84
2023/11/28 11:47:22;;;;;;;43.37;19.43;;;1.10;99.90;;;;;;4954498;29;20281;-84
2023/11/28 11:49:51;;;;;;;39.87;18.87;;;1.00;99.90;;;;;;4953833;29;20202;-83
2023/11/28 11:52:20;;;;;;;39.87;18.97;;;0.90;99.90;;;;;;4954837;28;20658;-83
2023/11/28 11:54:48;;;;;;;42.97;18.67;;;0.80;99.90;;;;;;4939953;29;20244;-83
2023/11/28 11:57:16;;;;;;;39.17;18.00;;;0.70;99.90;;;;;;4956733;29;20682;-82
2023/11/28 11:59:44;;;;;;;37.03;17.33;;;0.60;99.90;;;;;;4923558;29;20216;-83
2023/11/28 12:02:11;;;;;;;39.73;17.87;;;0.60;99.90;;;;;;4957011;29;20204;-82
2023/11/28 12:04:42;;;;;;;36.40;16.97;;;0.60;99.90;;;;;;4956645;29;20692;-82
2023/11/28 12:07:12;;;;;;;36.03;16.83;;;0.60;99.90;;;;;;4939719;29;20221;-83
2023/11/28 12:09:40;;;;;;;36.60;17.27;;;0.70;99.90;;;;;;4955778;29;20673;-83
2023/11/28 12:12:09;;;;;;;37.60;16.83;;;0.60;99.90;;;;;;4955852;29;20233;-85
2023/11/28 12:14:36;;;;;;;36.40;16.23;;;0.70;99.90;;;;;;4956543;29;20657;-84
2023/11/28 12:17:04;;;;;;;36.37;16.63;;;0.70;99.90;;;;;;4956944;29;20200;-84
2023/11/28 12:19:33;;;;;;;39.33;16.93;;;0.60;99.90;;;;;;4955778;29;20204;-85
2023/11/28 12:22:03;;;;;;;36.97;16.87;;;0.60;99.90;;;;;;4957023;29;20198;-84
2023/11/28 12:24:32;;;;;;;37.23;16.13;;;0.70;99.90;;;;;;4939577;29;20202;-85
2023/11/28 12:27:00;;;;;;;34.33;16.57;;;0.70;99.90;;;;;;4956844;29;20222;-86
2023/11/28 12:29:27;;;;;;;34.17;16.50;;;0.70;99.90;;;;;;4939614;29;20200;-85
2023/11/28 12:31:55;;;;;;;34.60;15.40;;;0.70;99.90;;;;;;4957110;28;20194;-88
2023/11/28 12:34:27;;;;;;;30.17;15.50;;;0.60;99.90;;;;;;4939842;29;20204;-88
2023/11/28 12:36:56;;;;;;;31.07;15.00;;;0.60;99.90;;;;;;4957819;29;20602;-85